createdAt,value
2019-01-31T00:00:12.407Z,982.96
2019-01-31T00:01:12.379Z,982.97
2019-01-31T00:02:12.375Z,983.01
2019-01-31T00:03:12.354Z,982.93
2019-01-31T00:04:12.372Z,982.96
2019-01-31T00:05:12.335Z,982.95
2019-01-31T00:06:12.320Z,982.93
2019-01-31T00:07:12.322Z,982.94
2019-01-31T00:08:12.303Z,982.93
2019-01-31T00:09:12.292Z,982.89
2019-01-31T00:10:12.297Z,982.90
2019-01-31T00:11:12.271Z,982.87
2019-01-31T00:12:12.295Z,982.88
2019-01-31T00:13:12.249Z,982.84
2019-01-31T00:14:12.238Z,982.87
2019-01-31T00:15:12.227Z,982.90
2019-01-31T00:16:12.243Z,982.87
2019-01-31T00:17:12.202Z,982.90
2019-01-31T00:18:12.193Z,982.85
2019-01-31T00:19:12.183Z,982.85
2019-01-31T00:20:12.173Z,982.82
2019-01-31T00:21:12.161Z,982.88
2019-01-31T00:22:12.163Z,982.87
2019-01-31T00:23:12.140Z,982.87
2019-01-31T00:24:12.129Z,982.91
2019-01-31T00:25:12.118Z,982.86
2019-01-31T00:26:12.107Z,982.91
2019-01-31T00:27:12.108Z,982.89
2019-01-31T00:28:12.086Z,982.91
2019-01-31T00:29:12.076Z,982.93
2019-01-31T00:30:12.065Z,982.91
2019-01-31T00:31:12.052Z,982.94
2019-01-31T00:32:12.055Z,982.95
2019-01-31T00:33:12.032Z,982.92
2019-01-31T00:34:12.023Z,982.95
2019-01-31T00:35:12.011Z,982.95
2019-01-31T00:36:11.999Z,982.92
2019-01-31T00:37:12.005Z,982.89
2019-01-31T00:38:11.983Z,982.92
2019-01-31T00:39:11.981Z,982.95
2019-01-31T00:40:11.959Z,982.91
2019-01-31T00:41:11.943Z,982.93
2019-01-31T00:42:11.935Z,982.85
2019-01-31T00:43:11.924Z,982.94
2019-01-31T00:44:11.925Z,982.90
2019-01-31T00:45:11.900Z,982.89
2019-01-31T00:46:11.891Z,982.89
2019-01-31T00:47:11.877Z,982.88
2019-01-31T00:48:11.879Z,982.91
2019-01-31T00:49:11.858Z,982.90
2019-01-31T00:50:11.874Z,982.89
2019-01-31T00:51:11.837Z,982.89
2019-01-31T00:52:11.826Z,982.94
2019-01-31T00:53:11.816Z,982.89
2019-01-31T00:54:11.803Z,982.89
2019-01-31T00:55:11.791Z,982.92
2019-01-31T00:56:11.796Z,982.91
2019-01-31T00:57:11.781Z,982.91
2019-01-31T00:58:11.761Z,982.92
2019-01-31T00:59:11.767Z,982.93
2019-01-31T01:00:11.738Z,982.96
2019-01-31T01:01:11.743Z,982.92
2019-01-31T01:02:11.716Z,982.93
2019-01-31T01:03:11.708Z,983.01
2019-01-31T01:04:11.698Z,982.98
2019-01-31T01:05:11.687Z,983.02
2019-01-31T01:06:11.703Z,983.00
2019-01-31T01:07:11.663Z,983.00
2019-01-31T01:08:11.655Z,982.98
2019-01-31T01:09:11.640Z,982.97
2019-01-31T01:10:11.630Z,982.97
2019-01-31T01:11:11.620Z,983.02
2019-01-31T01:18:32.860Z,983.02
2019-01-31T01:19:00.039Z,983.00
2019-01-31T01:24:38.797Z,983.00
2019-01-31T01:25:38.767Z,983.04
2019-01-31T01:26:38.784Z,983.05
2019-01-31T01:27:38.748Z,983.05
2019-01-31T01:28:38.733Z,983.05
2019-01-31T01:29:38.726Z,983.07
2019-01-31T01:30:38.714Z,983.17
2019-01-31T01:31:38.722Z,983.12
2019-01-31T01:32:38.693Z,983.07
2019-01-31T01:33:38.680Z,983.10
2019-01-31T01:34:45.713Z,983.16
2019-01-31T01:35:38.691Z,983.18
2019-01-31T01:36:38.651Z,983.14
2019-01-31T01:37:38.637Z,983.19
2019-01-31T01:38:38.625Z,983.20
2019-01-31T01:39:38.616Z,983.21
2019-01-31T01:40:38.607Z,983.22
2019-01-31T01:41:38.612Z,983.21
2019-01-31T01:42:38.586Z,983.24
2019-01-31T01:43:38.572Z,983.22
2019-01-31T01:44:38.564Z,983.25
2019-01-31T01:45:38.552Z,983.23
2019-01-31T01:46:38.556Z,983.26
2019-01-31T01:47:38.529Z,983.29
2019-01-31T01:48:38.519Z,983.26
2019-01-31T01:49:38.515Z,983.26
2019-01-31T01:50:38.497Z,983.31
2019-01-31T01:51:38.499Z,983.29
2019-01-31T01:52:38.497Z,983.32
2019-01-31T01:53:38.465Z,983.28
2019-01-31T01:54:38.458Z,983.38
2019-01-31T01:55:38.446Z,983.33
2019-01-31T01:56:38.432Z,983.34
2019-01-31T01:57:38.424Z,983.31
2019-01-31T01:58:38.427Z,983.27
2019-01-31T01:59:38.402Z,983.33
2019-01-31T02:00:38.395Z,983.30
2019-01-31T02:01:38.378Z,983.31
2019-01-31T02:02:38.388Z,983.30
2019-01-31T02:03:38.389Z,983.34
2019-01-31T02:04:38.345Z,983.34
2019-01-31T02:05:38.337Z,983.37
2019-01-31T02:06:38.326Z,983.35
2019-01-31T02:07:38.316Z,983.37
2019-01-31T02:08:38.305Z,983.38
2019-01-31T02:09:38.308Z,983.40
2019-01-31T02:10:38.283Z,983.40
2019-01-31T02:11:38.270Z,983.41
2019-01-31T02:12:38.263Z,983.36
2019-01-31T02:13:38.276Z,983.37
2019-01-31T02:14:38.241Z,983.39
2019-01-31T02:15:38.230Z,983.40
2019-01-31T02:16:38.217Z,983.40
2019-01-31T02:17:38.217Z,983.43
2019-01-31T02:18:38.196Z,983.40
2019-01-31T02:19:38.202Z,983.41
2019-01-31T02:20:38.173Z,983.41
2019-01-31T02:21:38.167Z,983.35
2019-01-31T02:22:38.171Z,983.38
2019-01-31T02:23:38.144Z,983.41
2019-01-31T02:24:38.134Z,983.39
2019-01-31T02:25:38.145Z,983.40
2019-01-31T02:26:38.112Z,983.42
2019-01-31T02:27:38.099Z,983.43
2019-01-31T02:28:38.088Z,983.40
2019-01-31T02:29:38.095Z,983.39
2019-01-31T02:30:38.069Z,983.39
2019-01-31T02:31:38.058Z,983.38
2019-01-31T02:32:38.066Z,983.41
2019-01-31T02:33:38.038Z,983.40
2019-01-31T02:34:38.041Z,983.37
2019-01-31T02:35:38.017Z,983.42
2019-01-31T02:36:38.001Z,983.43
2019-01-31T02:37:37.995Z,983.45
2019-01-31T02:38:38.001Z,983.45
2019-01-31T02:39:43.175Z,983.43
2019-01-31T02:40:38.972Z,983.50
2019-01-31T02:41:37.954Z,983.51
2019-01-31T02:42:37.937Z,983.48
2019-01-31T02:43:37.929Z,983.53
2019-01-31T02:44:37.917Z,983.52
2019-01-31T02:45:37.940Z,983.46
2019-01-31T02:46:37.897Z,983.48
2019-01-31T02:47:37.886Z,983.53
2019-01-31T02:48:37.875Z,983.53
2019-01-31T02:49:37.862Z,983.51
2019-01-31T02:50:37.861Z,983.53
2019-01-31T02:51:37.856Z,983.58
2019-01-31T02:52:37.829Z,983.56
2019-01-31T02:53:37.823Z,983.56
2019-01-31T02:54:37.816Z,983.55
2019-01-31T02:55:37.796Z,983.53
2019-01-31T02:56:37.811Z,983.51
2019-01-31T02:57:37.778Z,983.53
2019-01-31T02:58:37.768Z,983.57
2019-01-31T02:59:37.763Z,983.55
2019-01-31T03:00:37.745Z,983.54
2019-01-31T03:01:37.733Z,983.54
2019-01-31T03:02:37.756Z,983.56
2019-01-31T03:03:37.728Z,983.53
2019-01-31T03:04:37.714Z,983.57
2019-01-31T03:05:37.693Z,983.58
2019-01-31T03:06:37.797Z,983.56
2019-01-31T03:07:37.670Z,983.56
2019-01-31T03:08:37.797Z,983.61
2019-01-31T03:09:37.648Z,983.61
2019-01-31T03:10:39.418Z,983.64
2019-01-31T03:11:37.627Z,983.62
2019-01-31T03:12:37.616Z,983.64
2019-01-31T03:13:37.619Z,983.64
2019-01-31T03:14:37.615Z,983.60
2019-01-31T03:15:37.586Z,983.64
2019-01-31T03:16:37.577Z,983.65
2019-01-31T03:17:37.560Z,983.64
2019-01-31T03:18:37.553Z,983.61
2019-01-31T03:19:37.575Z,983.59
2019-01-31T03:20:37.531Z,983.60
2019-01-31T03:21:37.519Z,983.58
2019-01-31T03:22:37.509Z,983.59
2019-01-31T03:23:37.498Z,983.61
2019-01-31T03:24:37.487Z,983.61
2019-01-31T03:25:37.497Z,983.55
2019-01-31T03:26:37.466Z,983.61
2019-01-31T03:27:37.459Z,983.64
2019-01-31T03:28:37.443Z,983.62
2019-01-31T03:29:37.434Z,983.62
2019-01-31T03:30:37.424Z,983.61
2019-01-31T03:31:37.429Z,983.61
2019-01-31T03:32:37.406Z,983.67
2019-01-31T03:33:37.392Z,983.64
2019-01-31T03:34:37.377Z,983.65
2019-01-31T03:35:37.499Z,983.68
2019-01-31T03:36:37.376Z,983.69
2019-01-31T03:37:37.348Z,983.70
2019-01-31T03:38:37.338Z,983.66
2019-01-31T03:39:37.327Z,983.67
2019-01-31T03:40:37.330Z,983.68
2019-01-31T03:41:37.350Z,983.65
2019-01-31T03:42:37.295Z,983.64
2019-01-31T03:43:37.285Z,983.65
2019-01-31T03:44:37.272Z,983.64
2019-01-31T03:45:37.264Z,983.66
2019-01-31T03:46:37.252Z,983.61
2019-01-31T03:47:37.255Z,983.66
2019-01-31T03:48:37.229Z,983.71
2019-01-31T03:49:37.218Z,983.67
2019-01-31T03:50:37.210Z,983.69
2019-01-31T03:51:37.216Z,983.70
2019-01-31T03:52:37.204Z,983.67
2019-01-31T03:53:37.178Z,983.66
2019-01-31T03:54:37.171Z,983.69
2019-01-31T03:55:37.157Z,983.65
2019-01-31T03:56:37.245Z,983.64
2019-01-31T03:57:37.149Z,983.66
2019-01-31T03:58:37.127Z,983.64
2019-01-31T03:59:37.109Z,983.63
2019-01-31T04:00:37.100Z,983.62
2019-01-31T04:01:37.089Z,983.69
2019-01-31T04:02:37.089Z,983.70
2019-01-31T04:03:37.100Z,983.70
2019-01-31T04:04:37.059Z,983.75
2019-01-31T04:05:37.046Z,983.70
2019-01-31T04:06:37.034Z,983.73
2019-01-31T04:07:37.025Z,983.72
2019-01-31T04:08:37.015Z,983.74
2019-01-31T04:09:37.028Z,983.78
2019-01-31T04:10:36.991Z,983.77
2019-01-31T04:11:36.981Z,983.79
2019-01-31T04:12:36.972Z,983.81
2019-01-31T04:13:36.960Z,983.80
2019-01-31T04:14:36.952Z,983.77
2019-01-31T04:15:36.978Z,983.81
2019-01-31T04:16:36.929Z,983.80
2019-01-31T04:17:36.919Z,983.81
2019-01-31T04:18:36.907Z,983.80
2019-01-31T04:19:36.899Z,983.84
2019-01-31T04:20:36.884Z,983.84
2019-01-31T04:21:36.950Z,983.82
2019-01-31T04:22:36.866Z,983.82
2019-01-31T04:23:36.854Z,983.79
2019-01-31T04:24:36.845Z,983.84
2019-01-31T04:25:36.847Z,983.84
2019-01-31T04:26:36.820Z,983.86
2019-01-31T04:27:36.812Z,983.85
2019-01-31T04:28:36.800Z,983.82
2019-01-31T04:29:36.787Z,983.86
2019-01-31T04:30:36.799Z,983.85
2019-01-31T04:31:36.767Z,983.85
2019-01-31T04:32:36.757Z,983.86
2019-01-31T04:33:36.746Z,983.84
2019-01-31T04:34:36.735Z,983.82
2019-01-31T04:35:36.723Z,983.83
2019-01-31T04:36:36.732Z,983.83
2019-01-31T04:37:36.702Z,983.87
2019-01-31T04:38:36.689Z,983.83
2019-01-31T04:39:36.697Z,983.87
2019-01-31T04:40:36.671Z,983.86
2019-01-31T04:41:36.673Z,983.91
2019-01-31T04:42:36.651Z,983.88
2019-01-31T04:43:36.640Z,983.92
2019-01-31T04:44:36.640Z,983.88
2019-01-31T04:45:36.622Z,983.93
2019-01-31T04:46:36.619Z,983.95
2019-01-31T04:47:36.598Z,983.92
2019-01-31T04:48:36.582Z,983.92
2019-01-31T04:49:36.589Z,983.88
2019-01-31T04:50:36.567Z,983.91
2019-01-31T04:51:36.550Z,983.86
2019-01-31T04:52:36.542Z,983.90
2019-01-31T04:53:36.529Z,983.86
2019-01-31T04:54:36.520Z,983.86
2019-01-31T04:55:36.522Z,983.86
2019-01-31T04:56:36.496Z,983.85
2019-01-31T04:57:36.487Z,983.84
2019-01-31T04:58:36.508Z,983.85
2019-01-31T04:59:36.466Z,983.90
2019-01-31T05:00:36.460Z,983.86
2019-01-31T05:01:36.445Z,983.89
2019-01-31T05:02:36.433Z,983.91
2019-01-31T05:03:36.420Z,983.88
2019-01-31T05:04:36.456Z,983.86
2019-01-31T05:05:36.407Z,983.87
2019-01-31T05:06:36.390Z,983.87
2019-01-31T05:07:36.376Z,983.90
2019-01-31T05:08:36.366Z,983.89
2019-01-31T05:09:36.373Z,983.91
2019-01-31T05:10:43.323Z,983.94
2019-01-31T05:11:37.338Z,983.96
2019-01-31T05:12:36.326Z,983.99
2019-01-31T05:13:36.319Z,984.01
2019-01-31T05:14:36.339Z,983.98
2019-01-31T05:15:36.302Z,984.00
2019-01-31T05:16:36.295Z,983.96
2019-01-31T05:17:36.275Z,984.00
2019-01-31T05:18:36.264Z,983.97
2019-01-31T05:19:36.269Z,983.95
2019-01-31T05:20:36.290Z,983.93
2019-01-31T05:21:36.253Z,983.94
2019-01-31T05:22:36.216Z,983.94
2019-01-31T05:23:36.209Z,983.93
2019-01-31T05:24:36.199Z,983.92
2019-01-31T05:25:36.185Z,983.95
2019-01-31T05:26:36.187Z,983.90
2019-01-31T05:27:36.165Z,983.87
2019-01-31T05:28:36.154Z,983.94
2019-01-31T05:29:36.145Z,983.93
2019-01-31T05:30:36.133Z,983.92
2019-01-31T05:31:36.151Z,983.90
2019-01-31T05:32:36.111Z,983.94
2019-01-31T05:33:36.106Z,983.96
2019-01-31T05:34:36.125Z,983.93
2019-01-31T05:35:36.131Z,983.94
2019-01-31T05:36:36.104Z,983.93
2019-01-31T05:37:36.118Z,983.89
2019-01-31T05:38:36.075Z,983.93
2019-01-31T05:39:36.081Z,983.91
2019-01-31T05:40:36.070Z,983.98
2019-01-31T05:41:36.100Z,983.93
2019-01-31T05:42:36.093Z,983.96
2019-01-31T05:43:36.102Z,983.96
2019-01-31T05:44:36.075Z,983.92
2019-01-31T05:45:36.059Z,983.92
2019-01-31T05:46:36.036Z,983.90
2019-01-31T05:47:36.045Z,983.95
2019-01-31T05:48:35.968Z,983.93
2019-01-31T05:49:35.946Z,983.98
2019-01-31T05:50:35.993Z,984.02
2019-01-31T05:51:35.925Z,984.03
2019-01-31T05:52:35.902Z,984.01
2019-01-31T05:53:35.889Z,984.02
2019-01-31T05:54:35.906Z,984.00
2019-01-31T05:55:35.877Z,983.99
2019-01-31T05:56:35.885Z,984.02
2019-01-31T05:57:35.877Z,984.04
2019-01-31T05:58:35.833Z,984.04
2019-01-31T05:59:35.820Z,984.07
2019-01-31T06:00:35.807Z,984.04
2019-01-31T06:01:35.802Z,984.05
2019-01-31T06:02:35.852Z,984.06
2019-01-31T06:03:35.776Z,984.11
2019-01-31T06:04:35.773Z,984.07
2019-01-31T06:05:35.757Z,984.09
2019-01-31T06:06:35.746Z,984.09
2019-01-31T06:07:35.740Z,984.06
2019-01-31T06:08:35.768Z,984.07
2019-01-31T06:09:35.709Z,984.06
2019-01-31T06:10:35.715Z,984.08
2019-01-31T06:11:35.688Z,984.13
2019-01-31T06:12:35.681Z,984.17
2019-01-31T06:13:35.671Z,984.17
2019-01-31T06:14:35.686Z,984.20
2019-01-31T06:15:35.669Z,984.15
2019-01-31T06:16:35.638Z,984.17
2019-01-31T06:17:35.624Z,984.16
2019-01-31T06:18:35.614Z,984.17
2019-01-31T06:19:35.605Z,984.15
2019-01-31T06:20:35.638Z,984.21
2019-01-31T06:21:35.616Z,984.23
2019-01-31T06:22:35.573Z,984.19
2019-01-31T06:23:35.564Z,984.19
2019-01-31T06:24:35.569Z,984.15
2019-01-31T06:25:35.544Z,984.16
2019-01-31T06:26:35.530Z,984.17
2019-01-31T06:27:35.537Z,984.24
2019-01-31T06:28:35.515Z,984.25
2019-01-31T06:29:35.524Z,984.22
2019-01-31T06:30:35.489Z,984.28
2019-01-31T06:31:35.487Z,984.24
2019-01-31T06:32:35.499Z,984.30
2019-01-31T06:33:35.467Z,984.32
2019-01-31T06:34:35.448Z,984.29
2019-01-31T06:35:35.434Z,984.33
2019-01-31T06:36:35.423Z,984.32
2019-01-31T06:37:35.413Z,984.34
2019-01-31T06:38:35.418Z,984.34
2019-01-31T06:39:35.396Z,984.34
2019-01-31T06:40:35.380Z,984.35
2019-01-31T06:41:35.374Z,984.35
2019-01-31T06:42:35.358Z,984.34
2019-01-31T06:43:35.361Z,984.44
2019-01-31T06:44:35.339Z,984.42
2019-01-31T06:45:35.325Z,984.41
2019-01-31T06:46:35.314Z,984.41
2019-01-31T06:47:35.316Z,984.50
2019-01-31T06:48:35.308Z,984.47
2019-01-31T06:49:35.283Z,984.45
2019-01-31T06:50:35.277Z,984.47
2019-01-31T06:51:35.264Z,984.47
2019-01-31T06:52:35.253Z,984.47
2019-01-31T06:53:35.271Z,984.50
2019-01-31T06:54:35.232Z,984.54
2019-01-31T06:55:35.222Z,984.56
2019-01-31T06:56:35.209Z,984.56
2019-01-31T06:57:35.200Z,984.58
2019-01-31T06:58:35.189Z,984.60
2019-01-31T06:59:35.189Z,984.65
2019-01-31T07:00:35.200Z,984.66
2019-01-31T07:01:35.160Z,984.66
2019-01-31T07:02:35.145Z,984.69
2019-01-31T07:03:35.135Z,984.66
2019-01-31T07:04:35.127Z,984.68
2019-01-31T07:05:35.113Z,984.73
2019-01-31T07:06:35.121Z,984.72
2019-01-31T07:07:35.095Z,984.71
2019-01-31T07:08:35.084Z,984.67
2019-01-31T07:09:35.073Z,984.71
2019-01-31T07:10:35.064Z,984.72
2019-01-31T07:11:35.053Z,984.71
2019-01-31T07:12:35.065Z,984.73
2019-01-31T07:13:35.031Z,984.72
2019-01-31T07:14:35.021Z,984.66
2019-01-31T07:15:35.010Z,984.67
2019-01-31T07:16:34.996Z,984.74
2019-01-31T07:17:34.989Z,984.73
2019-01-31T07:18:34.989Z,984.69
2019-01-31T07:19:34.966Z,984.72
2019-01-31T07:20:34.957Z,984.63
2019-01-31T07:21:34.945Z,984.65
2019-01-31T07:22:34.936Z,984.69
2019-01-31T07:23:34.937Z,984.69
2019-01-31T07:24:34.919Z,984.70
2019-01-31T07:25:34.998Z,984.76
2019-01-31T07:26:34.891Z,984.74
2019-01-31T07:27:34.882Z,984.73
2019-01-31T07:28:34.899Z,984.81
2019-01-31T07:29:34.858Z,984.79
2019-01-31T07:30:34.850Z,984.78
2019-01-31T07:31:34.840Z,984.78
2019-01-31T07:32:34.830Z,984.79
2019-01-31T07:33:34.819Z,984.81
2019-01-31T07:34:34.824Z,984.78
2019-01-31T07:35:34.797Z,984.78
2019-01-31T07:36:34.792Z,984.79
2019-01-31T07:37:34.776Z,984.81
2019-01-31T07:38:34.781Z,984.82
2019-01-31T07:39:34.756Z,984.86
2019-01-31T07:40:34.808Z,984.79
2019-01-31T07:41:41.573Z,984.80
2019-01-31T07:42:35.719Z,984.80
2019-01-31T07:43:34.712Z,984.84
2019-01-31T07:44:34.722Z,984.84
2019-01-31T07:45:34.691Z,984.86
2019-01-31T07:46:34.679Z,984.86
2019-01-31T07:47:36.753Z,984.87
2019-01-31T07:48:34.660Z,984.81
2019-01-31T07:49:36.654Z,984.79
2019-01-31T07:50:34.647Z,984.84
2019-01-31T07:51:34.629Z,984.84
2019-01-31T07:52:34.613Z,984.83
2019-01-31T07:53:34.621Z,984.82
2019-01-31T07:54:34.593Z,984.79
2019-01-31T07:55:34.584Z,984.81
2019-01-31T07:56:34.571Z,984.84
2019-01-31T07:57:34.562Z,984.82
2019-01-31T07:58:34.552Z,984.87
2019-01-31T07:59:34.568Z,984.86
2019-01-31T08:00:34.527Z,984.88
2019-01-31T08:01:34.517Z,984.88
2019-01-31T08:02:34.509Z,984.88
2019-01-31T08:03:34.498Z,984.85
2019-01-31T08:04:34.486Z,984.88
2019-01-31T08:05:34.489Z,984.90
2019-01-31T08:06:34.462Z,984.88
2019-01-31T08:07:34.452Z,984.89
2019-01-31T08:08:34.498Z,984.87
2019-01-31T08:09:34.456Z,984.87
2019-01-31T08:10:34.465Z,984.84
2019-01-31T08:11:34.439Z,984.86
2019-01-31T08:12:36.946Z,984.91
2019-01-31T08:13:34.487Z,984.91
2019-01-31T08:14:34.406Z,984.95
2019-01-31T08:15:34.422Z,984.97
2019-01-31T08:16:34.429Z,985.00
2019-01-31T08:17:34.368Z,984.98
2019-01-31T08:18:34.341Z,984.97
2019-01-31T08:19:34.324Z,984.99
2019-01-31T08:20:34.312Z,984.97
2019-01-31T08:21:34.322Z,985.01
2019-01-31T08:22:34.305Z,985.03
2019-01-31T08:23:34.308Z,985.03
2019-01-31T08:24:34.279Z,985.07
2019-01-31T08:25:34.292Z,985.10
2019-01-31T08:26:34.278Z,985.10
2019-01-31T08:27:34.243Z,985.13
2019-01-31T08:28:34.270Z,985.07
2019-01-31T08:29:34.230Z,985.12
2019-01-31T08:30:34.206Z,985.12
2019-01-31T08:31:34.196Z,985.08
2019-01-31T08:32:34.239Z,985.08
2019-01-31T08:33:34.192Z,985.08
2019-01-31T08:34:34.190Z,985.08
2019-01-31T08:35:34.150Z,985.13
2019-01-31T08:36:34.143Z,985.16
2019-01-31T08:37:34.176Z,985.12
2019-01-31T08:38:36.698Z,985.26
2019-01-31T08:39:34.113Z,985.26
2019-01-31T08:40:34.097Z,985.26
2019-01-31T08:41:34.105Z,985.23
2019-01-31T08:42:34.076Z,985.23
2019-01-31T08:43:34.076Z,985.18
2019-01-31T08:44:34.071Z,985.18
2019-01-31T08:45:34.081Z,985.26
2019-01-31T08:46:34.040Z,985.28
2019-01-31T08:47:34.020Z,985.28
2019-01-31T08:48:34.130Z,985.26
2019-01-31T08:49:34.000Z,985.32
2019-01-31T08:50:34.020Z,985.33
2019-01-31T08:51:33.980Z,985.33
2019-01-31T08:52:33.972Z,985.30
2019-01-31T08:53:33.958Z,985.32
2019-01-31T08:54:33.962Z,985.32
2019-01-31T08:55:33.936Z,985.25
2019-01-31T08:56:33.930Z,985.28
2019-01-31T08:57:33.915Z,985.26
2019-01-31T08:58:33.905Z,985.28
2019-01-31T08:59:33.893Z,985.34
2019-01-31T09:00:33.896Z,985.32
2019-01-31T09:01:33.873Z,985.35
2019-01-31T09:02:33.866Z,985.37
2019-01-31T09:03:33.851Z,985.39
2019-01-31T09:04:33.881Z,985.39
2019-01-31T09:05:33.834Z,985.35
2019-01-31T09:06:33.820Z,985.36
2019-01-31T09:07:33.804Z,985.37
2019-01-31T09:08:33.796Z,985.41
2019-01-31T09:09:33.785Z,985.38
2019-01-31T09:10:33.787Z,985.38
2019-01-31T09:11:33.768Z,985.37
2019-01-31T09:12:33.753Z,985.34
2019-01-31T09:13:33.740Z,985.34
2019-01-31T09:14:33.731Z,985.35
2019-01-31T09:15:33.848Z,985.35
2019-01-31T09:16:33.708Z,985.33
2019-01-31T09:17:33.713Z,985.35
2019-01-31T09:18:33.692Z,985.35
2019-01-31T09:19:33.678Z,985.35
2019-01-31T09:20:33.666Z,985.36
2019-01-31T09:21:33.690Z,985.30
2019-01-31T09:22:33.645Z,985.34
2019-01-31T09:23:33.636Z,985.37
2019-01-31T09:24:33.624Z,985.39
2019-01-31T09:25:33.610Z,985.36
2019-01-31T09:26:33.617Z,985.36
2019-01-31T09:27:33.589Z,985.38
2019-01-31T09:28:33.584Z,985.39
2019-01-31T09:29:33.572Z,985.37
2019-01-31T09:30:33.557Z,985.35
2019-01-31T09:31:33.548Z,985.40
2019-01-31T09:32:33.553Z,985.47
2019-01-31T09:33:33.526Z,985.41
2019-01-31T09:34:33.519Z,985.45
2019-01-31T09:35:33.511Z,985.43
2019-01-31T09:36:33.515Z,985.46
2019-01-31T09:37:33.505Z,985.45
2019-01-31T09:38:33.473Z,985.44
2019-01-31T09:39:33.462Z,985.44
2019-01-31T09:40:33.449Z,985.45
2019-01-31T09:41:33.439Z,985.47
2019-01-31T09:42:33.437Z,985.45
2019-01-31T09:43:33.461Z,985.46
2019-01-31T09:44:33.412Z,985.47
2019-01-31T09:45:33.396Z,985.44
2019-01-31T09:46:33.388Z,985.49
2019-01-31T09:47:33.376Z,985.48
2019-01-31T09:48:33.374Z,985.50
2019-01-31T09:49:33.352Z,985.50
2019-01-31T09:50:33.343Z,985.51
2019-01-31T09:51:33.339Z,985.50
2019-01-31T09:52:33.325Z,985.53
2019-01-31T09:53:33.328Z,985.51
2019-01-31T09:54:33.327Z,985.55
2019-01-31T09:55:33.310Z,985.56
2019-01-31T09:56:34.831Z,985.56
2019-01-31T09:57:33.267Z,985.66
2019-01-31T09:58:33.260Z,985.60
2019-01-31T09:59:33.275Z,985.63
2019-01-31T10:00:33.235Z,985.65
2019-01-31T10:01:33.224Z,985.62
2019-01-31T10:02:33.212Z,985.68
2019-01-31T10:03:34.869Z,985.64
2019-01-31T10:04:33.190Z,985.73
2019-01-31T10:05:33.209Z,985.76
2019-01-31T10:06:33.171Z,985.76
2019-01-31T10:07:33.187Z,985.81
2019-01-31T10:08:33.145Z,985.80
2019-01-31T10:09:33.141Z,985.82
2019-01-31T10:10:33.197Z,985.85
2019-01-31T10:11:33.147Z,985.82
2019-01-31T10:12:38.280Z,985.85
2019-01-31T10:13:34.105Z,985.86
2019-01-31T10:14:33.113Z,985.86
2019-01-31T10:15:33.078Z,985.88
2019-01-31T10:16:33.078Z,985.92
2019-01-31T10:17:33.140Z,985.93
2019-01-31T10:18:33.133Z,985.88
2019-01-31T10:19:33.032Z,985.88
2019-01-31T10:20:33.031Z,985.90
2019-01-31T10:21:33.010Z,985.89
2019-01-31T10:22:33.164Z,985.90
2019-01-31T10:23:32.983Z,985.90
2019-01-31T10:24:33.169Z,985.92
2019-01-31T10:25:35.623Z,985.93
2019-01-31T10:26:32.982Z,985.88
2019-01-31T10:27:32.973Z,985.91
2019-01-31T10:28:32.949Z,985.91
2019-01-31T10:29:32.926Z,985.90
2019-01-31T10:30:32.912Z,985.85
2019-01-31T10:31:32.921Z,985.79
2019-01-31T10:32:32.889Z,985.77
2019-01-31T10:33:32.899Z,985.78
2019-01-31T10:34:32.881Z,985.82
2019-01-31T10:35:32.862Z,985.80
2019-01-31T10:36:32.846Z,985.79
2019-01-31T10:37:32.833Z,985.78
2019-01-31T10:38:32.842Z,985.74
2019-01-31T10:39:35.493Z,985.72
2019-01-31T10:40:32.820Z,985.74
2019-01-31T10:41:32.806Z,985.77
2019-01-31T10:42:32.782Z,985.71
2019-01-31T10:43:32.792Z,985.73
2019-01-31T10:44:32.759Z,985.69
2019-01-31T10:45:32.752Z,985.73
2019-01-31T10:46:32.757Z,985.70
2019-01-31T10:47:32.728Z,985.71
2019-01-31T10:48:32.722Z,985.70
2019-01-31T10:49:32.752Z,985.69
2019-01-31T10:50:32.701Z,985.67
2019-01-31T10:51:32.711Z,985.65
2019-01-31T10:52:32.683Z,985.62
2019-01-31T10:53:32.677Z,985.61
2019-01-31T10:54:32.664Z,985.60
2019-01-31T10:55:32.666Z,985.55
2019-01-31T10:56:32.628Z,985.51
2019-01-31T10:57:32.619Z,985.52
2019-01-31T10:58:32.609Z,985.47
2019-01-31T10:59:32.615Z,985.44
2019-01-31T11:00:32.592Z,985.51
2019-01-31T11:01:32.576Z,985.43
2019-01-31T11:02:32.568Z,985.41
2019-01-31T11:03:32.570Z,985.40
2019-01-31T11:04:32.542Z,985.35
2019-01-31T11:05:32.532Z,985.40
2019-01-31T11:06:32.522Z,985.37
2019-01-31T11:07:32.517Z,985.38
2019-01-31T11:08:32.517Z,985.30
2019-01-31T11:09:32.492Z,985.34
2019-01-31T11:10:32.480Z,985.32
2019-01-31T11:11:32.486Z,985.32
2019-01-31T11:12:32.456Z,985.31
2019-01-31T11:13:32.458Z,985.32
2019-01-31T11:14:32.437Z,985.33
2019-01-31T11:15:32.543Z,985.30
2019-01-31T11:16:32.412Z,985.30
2019-01-31T11:17:32.401Z,985.33
2019-01-31T11:18:32.431Z,985.26
2019-01-31T11:19:32.381Z,985.29
2019-01-31T11:20:32.377Z,985.26
2019-01-31T11:21:32.361Z,985.30
2019-01-31T11:22:32.353Z,985.27
2019-01-31T11:23:32.339Z,985.28
2019-01-31T11:24:32.345Z,985.22
2019-01-31T11:25:32.315Z,985.26
2019-01-31T11:26:32.318Z,985.19
2019-01-31T11:27:32.292Z,985.16
2019-01-31T11:28:32.298Z,985.15
2019-01-31T11:29:32.271Z,985.10
2019-01-31T11:30:32.264Z,985.10
2019-01-31T11:31:32.250Z,985.07
2019-01-31T11:32:32.238Z,985.03
2019-01-31T11:33:32.262Z,984.98
2019-01-31T11:34:33.203Z,984.95
2019-01-31T11:35:32.209Z,984.95
2019-01-31T11:36:32.195Z,984.94
2019-01-31T11:37:32.183Z,984.94
2019-01-31T11:38:32.176Z,984.91
2019-01-31T11:39:32.182Z,984.87
2019-01-31T11:40:32.153Z,984.89
2019-01-31T11:41:32.144Z,984.87
2019-01-31T11:42:32.135Z,984.83
2019-01-31T11:43:32.120Z,984.82
2019-01-31T11:44:32.124Z,984.73
2019-01-31T11:45:32.096Z,984.72
2019-01-31T11:46:32.089Z,984.71
2019-01-31T11:47:32.091Z,984.69
2019-01-31T11:48:32.066Z,984.76
2019-01-31T11:49:32.057Z,984.73
2019-01-31T11:50:32.042Z,984.71
2019-01-31T11:51:32.033Z,984.65
2019-01-31T11:52:32.042Z,984.64
2019-01-31T11:53:32.013Z,984.65
2019-01-31T11:54:32.003Z,984.72
2019-01-31T11:55:32.007Z,984.63
2019-01-31T11:56:31.984Z,984.61
2019-01-31T11:57:31.970Z,984.57
2019-01-31T11:58:31.974Z,984.59
2019-01-31T11:59:31.950Z,984.55
2019-01-31T12:00:31.936Z,984.58
2019-01-31T12:01:31.926Z,984.58
2019-01-31T12:02:31.944Z,984.64
2019-01-31T12:03:31.906Z,984.57
2019-01-31T12:04:31.895Z,984.57
2019-01-31T12:05:31.882Z,984.55
2019-01-31T12:06:31.871Z,984.51
2019-01-31T12:07:31.861Z,984.53
2019-01-31T12:08:31.864Z,984.49
2019-01-31T12:09:31.842Z,984.51
2019-01-31T12:10:31.827Z,984.52
2019-01-31T12:11:31.814Z,984.48
2019-01-31T12:12:31.807Z,984.50
2019-01-31T12:13:31.826Z,984.47
2019-01-31T12:14:31.785Z,984.48
2019-01-31T12:15:31.774Z,984.45
2019-01-31T12:16:31.764Z,984.43
2019-01-31T12:17:31.904Z,984.46
2019-01-31T12:18:31.739Z,984.46
2019-01-31T12:19:31.743Z,984.42
2019-01-31T12:20:31.717Z,984.39
2019-01-31T12:21:31.722Z,984.47
2019-01-31T12:22:31.701Z,984.45
2019-01-31T12:23:32.357Z,984.42
2019-01-31T12:24:31.684Z,984.40
2019-01-31T12:25:31.663Z,984.38
2019-01-31T12:26:31.655Z,984.36
2019-01-31T12:27:31.645Z,984.38
2019-01-31T12:28:31.631Z,984.34
2019-01-31T12:29:31.651Z,984.33
2019-01-31T12:30:31.613Z,984.29
2019-01-31T12:31:31.627Z,984.30
2019-01-31T12:32:31.688Z,984.29
2019-01-31T12:33:31.623Z,984.28
2019-01-31T12:34:31.600Z,984.27
2019-01-31T12:35:31.631Z,984.20
2019-01-31T12:36:31.656Z,984.19
2019-01-31T12:37:31.576Z,984.16
2019-01-31T12:38:36.832Z,984.15